createdAt,value
2019-01-25T00:00:01.440Z,13.00
2019-01-25T00:01:10.422Z,10.80
2019-01-25T00:02:14.881Z,10.20
2019-01-25T00:03:17.457Z,9.00
2019-01-25T00:04:19.940Z,11.20
2019-01-25T00:05:22.438Z,12.00
2019-01-25T00:06:25.105Z,11.00
2019-01-25T00:07:27.673Z,9.20
2019-01-25T00:08:30.553Z,9.40
2019-01-25T00:09:33.382Z,11.80
2019-01-25T00:10:35.959Z,10.80
2019-01-25T00:11:38.824Z,10.80
2019-01-25T00:12:41.935Z,11.00
2019-01-25T00:13:44.568Z,11.80
2019-01-25T00:14:47.253Z,10.60
2019-01-25T00:15:49.818Z,11.00
2019-01-25T00:16:52.283Z,9.80
2019-01-25T00:17:54.858Z,10.40
2019-01-25T00:18:57.459Z,10.20
2019-01-25T00:20:00.106Z,8.80
2019-01-25T00:21:02.923Z,11.20
2019-01-25T00:22:05.470Z,10.60
2019-01-25T00:23:09.042Z,11.80
2019-01-25T00:24:11.709Z,12.00
2019-01-25T00:25:14.097Z,10.40
2019-01-25T00:26:16.507Z,10.80
2019-01-25T00:27:18.878Z,11.00
2019-01-25T00:28:21.343Z,12.00
2019-01-25T00:29:24.004Z,10.60
2019-01-25T00:30:26.572Z,10.40
2019-01-25T00:31:29.326Z,10.80
2019-01-25T00:32:32.410Z,11.60
2019-01-25T00:33:34.739Z,11.00
2019-01-25T00:34:37.421Z,10.80
2019-01-25T00:35:40.040Z,10.60
2019-01-25T00:36:42.476Z,10.60
2019-01-25T00:37:45.043Z,10.00
2019-01-25T00:38:47.515Z,10.40
2019-01-25T00:39:49.840Z,12.20
2019-01-25T00:40:52.181Z,10.20
2019-01-25T00:41:54.752Z,10.40
2019-01-25T00:42:57.403Z,11.20
2019-01-25T00:43:59.878Z,12.60
2019-01-25T00:45:02.334Z,11.00
2019-01-25T00:46:04.860Z,11.60
2019-01-25T00:47:07.663Z,12.40
2019-01-25T00:48:10.063Z,11.40
2019-01-25T00:49:12.786Z,12.40
2019-01-25T00:50:16.989Z,10.80
2019-01-25T00:51:20.718Z,10.80
2019-01-25T00:52:23.273Z,10.00
2019-01-25T00:53:25.663Z,11.20
2019-01-25T00:54:28.089Z,10.00
2019-01-25T00:55:30.849Z,10.60
2019-01-25T00:56:33.367Z,11.40
2019-01-25T00:57:35.835Z,10.00
2019-01-25T00:58:38.185Z,10.60
2019-01-25T00:59:40.797Z,11.00
2019-01-25T01:00:43.207Z,10.20
2019-01-25T01:01:45.814Z,12.00
2019-01-25T01:02:48.377Z,10.20
2019-01-25T01:03:50.941Z,10.60
2019-01-25T01:04:55.557Z,10.80
2019-01-25T01:06:00.168Z,10.00
2019-01-25T01:07:02.547Z,11.00
2019-01-25T01:08:04.891Z,12.00
2019-01-25T01:09:08.276Z,10.20
2019-01-25T01:10:14.282Z,9.20
2019-01-25T01:11:15.127Z,10.20
2019-01-25T01:12:17.495Z,10.60
2019-01-25T01:13:24.698Z,10.00
2019-01-25T01:14:27.115Z,10.80
2019-01-25T01:15:29.683Z,11.00
2019-01-25T01:16:32.194Z,10.40
2019-01-25T01:17:34.721Z,11.40
2019-01-25T01:18:37.737Z,11.40
2019-01-25T01:19:40.339Z,10.20
2019-01-25T01:20:42.896Z,11.20
2019-01-25T01:21:45.330Z,10.40
2019-01-25T01:22:48.608Z,9.80
2019-01-25T01:23:50.992Z,10.80
2019-01-25T01:24:55.617Z,11.40
2019-01-25T01:25:58.096Z,12.00
2019-01-25T01:27:00.569Z,11.00
2019-01-25T01:28:03.042Z,11.00
2019-01-25T01:29:06.732Z,10.80
2019-01-25T01:30:12.572Z,10.40
2019-01-25T01:31:15.330Z,10.60
2019-01-25T01:32:19.978Z,10.60
2019-01-25T01:33:22.412Z,11.40
2019-01-25T01:34:26.490Z,9.00
2019-01-25T01:35:29.173Z,11.20
2019-01-25T01:36:31.672Z,10.60
2019-01-25T01:37:35.440Z,9.40
2019-01-25T01:38:37.899Z,8.80
2019-01-25T01:39:40.347Z,11.80
2019-01-25T01:40:44.456Z,9.00
2019-01-25T01:41:46.957Z,10.60
2019-01-25T01:42:49.458Z,10.00
2019-01-25T01:43:51.976Z,11.00
2019-01-25T01:44:54.832Z,10.80
2019-01-25T01:45:58.246Z,10.80
2019-01-25T01:47:00.736Z,8.60
2019-01-25T01:48:03.286Z,10.20
2019-01-25T01:49:05.670Z,9.80
2019-01-25T01:50:09.961Z,9.20
2019-01-25T01:51:15.179Z,10.00
2019-01-25T01:52:17.609Z,11.60
2019-01-25T01:53:21.601Z,10.40
2019-01-25T01:54:23.963Z,11.80
2019-01-25T01:55:26.367Z,10.00
2019-01-25T01:56:30.642Z,9.00
2019-01-25T01:57:33.262Z,10.00
2019-01-25T01:58:36.757Z,9.60
2019-01-25T01:59:39.627Z,10.00
2019-01-25T02:00:42.159Z,10.40
2019-01-25T02:01:44.847Z,10.40
2019-01-25T02:02:47.219Z,10.00
2019-01-25T02:03:49.811Z,10.20
2019-01-25T02:04:54.429Z,10.40
2019-01-25T02:05:56.860Z,10.80
2019-01-25T02:06:59.759Z,9.20
2019-01-25T02:08:02.259Z,9.80
2019-01-25T02:09:07.019Z,11.60
2019-01-25T02:10:12.332Z,8.80
2019-01-25T02:11:15.039Z,9.80
2019-01-25T02:12:17.708Z,10.00
2019-01-25T02:13:20.155Z,9.40
2019-01-25T02:14:24.767Z,9.40
2019-01-25T02:15:28.479Z,10.40
2019-01-25T02:16:30.891Z,11.00
2019-01-25T02:17:33.271Z,12.00
2019-01-25T02:18:35.682Z,11.00
2019-01-25T02:19:38.065Z,10.20
2019-01-25T02:20:40.625Z,10.20
2019-01-25T02:21:43.119Z,9.00
2019-01-25T02:22:45.487Z,9.20
2019-01-25T02:23:47.940Z,9.60
2019-01-25T02:24:50.359Z,10.00
2019-01-25T02:25:52.848Z,10.80
2019-01-25T02:26:56.581Z,9.60
2019-01-25T02:27:59.384Z,10.60
2019-01-25T02:29:03.749Z,9.00
2019-01-25T02:30:09.167Z,10.40
2019-01-25T02:31:11.564Z,10.40
2019-01-25T02:32:14.071Z,10.40
2019-01-25T02:33:16.608Z,8.60
2019-01-25T02:34:20.966Z,10.40
2019-01-25T02:35:24.164Z,10.40
2019-01-25T02:36:26.626Z,10.00
2019-01-25T02:37:30.047Z,10.00
2019-01-25T02:38:32.463Z,9.00
2019-01-25T02:39:36.364Z,9.80
2019-01-25T02:40:39.467Z,9.80
2019-01-25T02:41:43.062Z,11.00
2019-01-25T02:42:45.586Z,11.00
2019-01-25T02:43:48.046Z,9.80
2019-01-25T02:44:50.434Z,9.40
2019-01-25T02:45:52.812Z,11.00
2019-01-25T02:46:55.264Z,10.40
2019-01-25T02:47:57.667Z,9.40
2019-01-25T02:49:00.465Z,10.40
2019-01-25T02:50:02.997Z,9.00
2019-01-25T02:51:05.798Z,9.60
2019-01-25T02:52:09.138Z,9.00
2019-01-25T02:53:11.639Z,10.60
2019-01-25T02:54:14.345Z,10.60
2019-01-25T02:55:16.937Z,9.80
2019-01-25T02:56:21.179Z,9.20
2019-01-25T02:57:23.861Z,9.80
2019-01-25T02:58:26.343Z,10.60
2019-01-25T02:59:28.747Z,10.60
2019-01-25T03:00:31.599Z,11.00
2019-01-25T03:01:35.167Z,9.80
2019-01-25T03:02:37.754Z,10.80
2019-01-25T03:03:40.325Z,10.40
2019-01-25T03:04:43.976Z,9.00
2019-01-25T03:05:46.455Z,9.20
2019-01-25T03:06:48.910Z,11.00
2019-01-25T03:07:51.458Z,9.00
2019-01-25T03:08:53.870Z,9.00
2019-01-25T03:09:56.595Z,9.40
2019-01-25T03:10:59.083Z,9.80
2019-01-25T03:12:01.925Z,11.40
2019-01-25T03:13:04.481Z,9.00
2019-01-25T03:14:07.127Z,10.80
2019-01-25T03:15:12.298Z,10.80
2019-01-25T03:16:14.969Z,9.40
2019-01-25T03:17:18.534Z,9.80
2019-01-25T03:18:20.934Z,9.80
2019-01-25T03:19:23.372Z,7.80
2019-01-25T03:20:26.072Z,11.00
2019-01-25T03:21:28.860Z,11.20
2019-01-25T03:22:31.301Z,10.20
2019-01-25T03:23:33.780Z,10.40
2019-01-25T03:24:36.326Z,9.20
2019-01-25T03:25:39.413Z,10.00
2019-01-25T03:26:43.179Z,10.40
2019-01-25T03:27:45.571Z,10.00
2019-01-25T03:28:48.007Z,9.40
2019-01-25T03:29:50.484Z,9.60
2019-01-25T03:30:52.834Z,9.00
2019-01-25T03:31:55.278Z,8.80
2019-01-25T03:32:57.746Z,9.20
2019-01-25T03:34:00.166Z,9.40
2019-01-25T03:35:02.712Z,9.60
2019-01-25T03:36:05.568Z,10.40
2019-01-25T03:37:07.956Z,10.20
2019-01-25T03:38:10.343Z,9.60
2019-01-25T03:39:12.720Z,11.20
2019-01-25T03:40:20.428Z,9.40
2019-01-25T03:41:22.822Z,10.00
2019-01-25T03:42:25.256Z,10.60
2019-01-25T03:43:27.739Z,9.60
2019-01-25T03:44:30.148Z,10.00
2019-01-25T03:45:32.597Z,10.40
2019-01-25T03:46:35.490Z,10.00
2019-01-25T03:47:37.909Z,11.00
2019-01-25T03:48:40.379Z,11.40
2019-01-25T03:49:43.235Z,9.00
2019-01-25T03:50:45.753Z,9.40
2019-01-25T03:51:48.384Z,9.20
2019-01-25T03:52:50.842Z,9.20
2019-01-25T03:53:54.315Z,9.00
2019-01-25T03:54:57.002Z,9.60
2019-01-25T03:55:59.546Z,8.40
2019-01-25T03:57:03.320Z,9.00
2019-01-25T03:58:06.046Z,9.40
2019-01-25T03:59:08.544Z,10.40
2019-01-25T04:00:17.180Z,9.20
2019-01-25T04:01:19.572Z,11.00
2019-01-25T04:02:22.034Z,9.00
2019-01-25T04:03:24.527Z,10.80
2019-01-25T04:04:26.991Z,10.00
2019-01-25T04:05:29.631Z,10.40
2019-01-25T04:06:32.259Z,10.80
2019-01-25T04:07:35.370Z,8.80
2019-01-25T04:08:37.961Z,8.80
2019-01-25T04:09:40.633Z,10.40
2019-01-25T04:10:43.173Z,10.40
2019-01-25T04:11:50.016Z,9.60
2019-01-25T04:12:52.431Z,8.20
2019-01-25T04:13:54.831Z,8.80
2019-01-25T04:14:58.347Z,9.60
2019-01-25T04:16:00.696Z,10.20
2019-01-25T04:17:03.278Z,9.60
2019-01-25T04:18:05.649Z,9.40
2019-01-25T04:19:08.369Z,9.60
2019-01-25T04:20:12.311Z,10.20
2019-01-25T04:21:15.188Z,11.00
2019-01-25T04:22:17.823Z,8.80
2019-01-25T04:23:20.204Z,8.20
2019-01-25T04:24:22.561Z,8.80
2019-01-25T04:25:25.495Z,9.00
2019-01-25T04:26:27.909Z,10.00
2019-01-25T04:27:32.451Z,9.00
2019-01-25T04:28:35.434Z,8.60
2019-01-25T04:29:38.116Z,9.80
2019-01-25T04:30:40.442Z,10.00
2019-01-25T04:31:43.290Z,10.00
2019-01-25T04:32:45.650Z,9.40
2019-01-25T04:33:48.096Z,10.20
2019-01-25T04:34:50.482Z,7.80
2019-01-25T04:35:54.246Z,10.80
2019-01-25T04:36:57.196Z,9.00
2019-01-25T04:37:59.796Z,9.00
2019-01-25T04:39:02.519Z,9.00
2019-01-25T04:40:09.167Z,9.20
2019-01-25T04:41:12.550Z,9.20
2019-01-25T04:42:16.895Z,10.00
2019-01-25T04:43:19.325Z,10.20
2019-01-25T04:44:21.726Z,9.00
2019-01-25T04:45:24.184Z,9.60
2019-01-25T04:46:27.722Z,10.00
2019-01-25T04:47:30.333Z,9.20
2019-01-25T04:48:32.885Z,7.80
2019-01-25T04:49:36.760Z,9.00
2019-01-25T04:50:39.234Z,9.00
2019-01-25T04:51:43.087Z,9.40
2019-01-25T04:52:46.235Z,9.00
2019-01-25T04:53:48.758Z,10.00
2019-01-25T04:54:52.437Z,9.40
2019-01-25T04:55:55.189Z,8.80
2019-01-25T04:56:57.613Z,8.00
2019-01-25T04:58:08.259Z,10.00
2019-01-25T04:59:11.771Z,10.00
2019-01-25T05:00:14.705Z,9.40
2019-01-25T05:01:17.323Z,8.40
2019-01-25T05:02:19.815Z,10.00
2019-01-25T05:03:23.301Z,6.40
2019-01-25T05:04:27.848Z,7.80
2019-01-25T05:05:30.411Z,8.60
2019-01-25T05:06:34.027Z,9.00
2019-01-25T05:07:36.753Z,9.00
2019-01-25T05:08:39.395Z,9.20
2019-01-25T05:09:41.872Z,7.80
2019-01-25T05:10:46.125Z,8.60
2019-01-25T05:11:48.790Z,7.00
2019-01-25T05:12:53.023Z,10.20
2019-01-25T05:13:57.607Z,9.80
2019-01-25T05:15:01.653Z,8.60
2019-01-25T05:16:04.035Z,9.20
2019-01-25T05:17:07.852Z,9.00
2019-01-25T05:18:10.476Z,7.80
2019-01-25T05:19:12.907Z,10.40
2019-01-25T05:20:15.532Z,7.80
2019-01-25T05:21:22.464Z,7.40
2019-01-25T05:22:24.940Z,9.20
2019-01-25T05:23:29.132Z,10.60
2019-01-25T05:24:31.609Z,7.80
2019-01-25T05:25:34.547Z,9.00
2019-01-25T05:26:37.949Z,8.60
2019-01-25T05:27:40.282Z,10.00
2019-01-25T05:28:42.784Z,9.20
2019-01-25T05:29:52.416Z,9.20
2019-01-25T05:31:03.134Z,9.00
2019-01-25T05:32:05.550Z,9.00
2019-01-25T05:33:08.098Z,9.80
2019-01-25T05:34:10.487Z,8.80
2019-01-25T05:35:15.104Z,9.80
2019-01-25T05:36:17.726Z,8.80
2019-01-25T05:37:20.066Z,9.00
2019-01-25T05:38:22.423Z,7.00
2019-01-25T05:39:24.911Z,8.60
2019-01-25T05:40:27.479Z,9.60
2019-01-25T05:41:29.886Z,9.60
2019-01-25T05:42:32.271Z,9.80
2019-01-25T05:43:41.561Z,9.40
2019-01-25T05:44:44.077Z,9.00
2019-01-25T05:45:46.751Z,7.40
2019-01-25T05:46:49.151Z,8.40
2019-01-25T05:47:51.990Z,9.00
2019-01-25T05:48:54.567Z,8.00
2019-01-25T05:49:59.467Z,9.00
2019-01-25T05:51:02.911Z,9.60
2019-01-25T05:52:06.104Z,7.80
2019-01-25T05:53:08.667Z,9.80
2019-01-25T05:54:12.347Z,7.40
2019-01-25T05:55:19.051Z,8.60
2019-01-25T05:56:22.508Z,7.40
2019-01-25T05:57:25.117Z,8.00
2019-01-25T05:58:27.860Z,6.40
2019-01-25T05:59:30.829Z,7.80
2019-01-25T06:00:35.683Z,6.00
2019-01-25T06:01:40.183Z,7.40
2019-01-25T06:02:42.864Z,8.20
2019-01-25T06:03:45.366Z,6.40
2019-01-25T06:04:48.030Z,6.20
2019-01-25T06:05:52.510Z,8.40
2019-01-25T06:06:56.451Z,8.20
2019-01-25T06:07:59.007Z,9.20
2019-01-25T06:09:01.416Z,9.00
2019-01-25T06:10:04.754Z,7.80
2019-01-25T06:11:11.790Z,8.20
2019-01-25T06:12:14.391Z,7.80
2019-01-25T06:13:16.944Z,9.00
2019-01-25T06:14:19.389Z,9.20
2019-01-25T06:15:23.569Z,8.80
2019-01-25T06:16:26.159Z,8.60
2019-01-25T06:17:28.770Z,8.40
2019-01-25T06:18:32.359Z,9.40
2019-01-25T06:19:37.879Z,9.40
2019-01-25T06:20:40.398Z,8.00
2019-01-25T06:21:42.766Z,7.80
2019-01-25T06:22:45.954Z,7.80
2019-01-25T06:23:48.738Z,10.00
2019-01-25T06:24:51.210Z,7.80
2019-01-25T06:25:57.850Z,8.80
2019-01-25T06:27:00.190Z,9.00
2019-01-25T06:28:04.495Z,9.60
2019-01-25T06:29:07.004Z,8.00
2019-01-25T06:30:12.297Z,8.80
2019-01-25T06:31:16.459Z,7.00
2019-01-25T06:32:20.492Z,10.20
2019-01-25T06:33:22.881Z,9.00
2019-01-25T06:34:26.461Z,9.40
2019-01-25T06:35:28.884Z,8.20
2019-01-25T06:36:31.196Z,8.80
2019-01-25T06:37:33.611Z,9.00
2019-01-25T06:38:36.501Z,9.00
2019-01-25T06:39:38.884Z,9.60
2019-01-25T06:40:42.001Z,10.00
2019-01-25T06:41:44.513Z,7.00
2019-01-25T06:42:46.933Z,7.00
2019-01-25T06:43:49.503Z,9.40
2019-01-25T06:44:52.928Z,10.20
2019-01-25T06:45:55.543Z,9.20
2019-01-25T06:46:57.955Z,8.20
2019-01-25T06:48:00.639Z,9.00
2019-01-25T06:49:03.338Z,8.80
2019-01-25T06:50:06.606Z,10.00
2019-01-25T06:51:09.333Z,9.00
2019-01-25T06:52:11.999Z,9.60
2019-01-25T06:53:14.843Z,9.40
2019-01-25T06:54:17.317Z,8.80
2019-01-25T06:55:19.721Z,9.00
2019-01-25T06:56:22.141Z,9.80
2019-01-25T06:57:35.139Z,8.80
2019-01-25T06:59:00.673Z,7.80
2019-01-25T07:00:04.183Z,9.20
2019-01-25T07:01:26.268Z,9.40
2019-01-25T07:02:34.466Z,9.40
2019-01-25T07:03:36.919Z,9.60
2019-01-25T07:04:39.418Z,8.80
2019-01-25T07:05:42.214Z,10.80
2019-01-25T07:06:44.699Z,10.00
2019-01-25T07:07:49.106Z,9.80
2019-01-25T07:08:53.048Z,9.60
2019-01-25T07:09:55.429Z,9.00
2019-01-25T07:10:57.754Z,9.60
2019-01-25T07:12:00.353Z,9.60
2019-01-25T07:13:03.160Z,9.80
2019-01-25T07:14:09.967Z,9.40
2019-01-25T07:15:15.664Z,10.80
2019-01-25T07:16:19.791Z,10.60
2019-01-25T07:17:22.712Z,10.40
2019-01-25T07:18:25.188Z,10.00
2019-01-25T07:19:28.361Z,10.20
2019-01-25T07:20:30.837Z,10.40
2019-01-25T07:21:33.219Z,10.00
2019-01-25T07:22:36.572Z,9.80
2019-01-25T07:23:39.172Z,10.00
2019-01-25T07:24:41.662Z,9.60
2019-01-25T07:25:44.012Z,10.40
2019-01-25T07:26:46.862Z,9.80
2019-01-25T07:27:49.220Z,10.60
2019-01-25T07:28:51.694Z,10.00
2019-01-25T07:29:55.870Z,10.80
2019-01-25T07:30:58.444Z,11.40
2019-01-25T07:32:00.895Z,11.20
2019-01-25T07:33:03.556Z,10.60
2019-01-25T07:34:06.058Z,9.00
2019-01-25T07:35:08.832Z,11.20
2019-01-25T07:36:11.510Z,10.80
2019-01-25T07:37:13.944Z,10.80
2019-01-25T07:38:16.423Z,9.00
2019-01-25T07:39:25.914Z,10.20
2019-01-25T07:40:28.382Z,10.20
2019-01-25T07:41:30.833Z,11.20
2019-01-25T07:42:34.369Z,12.00
2019-01-25T07:43:37.287Z,10.60
2019-01-25T07:44:39.954Z,12.00
2019-01-25T07:45:42.614Z,11.40
2019-01-25T07:46:45.153Z,10.80
2019-01-25T07:47:47.919Z,10.00
2019-01-25T07:48:50.900Z,9.00
2019-01-25T07:49:54.079Z,10.80
2019-01-25T07:50:56.665Z,10.00
2019-01-25T07:51:59.986Z,9.60
2019-01-25T07:53:02.425Z,9.40
2019-01-25T07:54:05.007Z,9.80
2019-01-25T07:55:08.221Z,11.80
2019-01-25T07:56:11.124Z,8.20
2019-01-25T07:57:13.651Z,11.00
2019-01-25T07:58:16.079Z,11.80
2019-01-25T07:59:18.540Z,11.60
2019-01-25T08:00:21.156Z,11.00
2019-01-25T08:01:23.913Z,10.60
2019-01-25T08:02:26.941Z,11.80
2019-01-25T08:03:29.517Z,11.20
2019-01-25T08:04:31.924Z,11.00
2019-01-25T08:05:34.441Z,12.40
2019-01-25T08:06:37.149Z,9.80
2019-01-25T08:07:39.775Z,10.60
2019-01-25T08:08:44.527Z,10.60
2019-01-25T08:09:47.123Z,12.00
2019-01-25T08:10:49.621Z,11.20
2019-01-25T08:11:52.315Z,11.80
2019-01-25T08:12:54.643Z,10.20
2019-01-25T08:13:57.194Z,10.60
2019-01-25T08:14:59.581Z,10.40
2019-01-25T08:16:02.040Z,10.40
2019-01-25T08:17:04.765Z,11.60
2019-01-25T08:18:07.367Z,12.00
2019-01-25T08:19:09.729Z,10.40
2019-01-25T08:20:12.366Z,11.60
2019-01-25T08:21:15.362Z,11.00
2019-01-25T08:22:18.037Z,12.60
2019-01-25T08:23:20.671Z,11.00
2019-01-25T08:24:23.208Z,11.60
2019-01-25T08:25:25.835Z,11.00
2019-01-25T08:26:28.400Z,12.80
2019-01-25T08:27:30.868Z,12.20
2019-01-25T08:28:33.342Z,10.40
2019-01-25T08:29:36.063Z,11.80
2019-01-25T08:30:39.777Z,11.00
2019-01-25T08:31:42.269Z,11.20
2019-01-25T08:32:44.670Z,9.80
2019-01-25T08:33:48.344Z,12.00
2019-01-25T08:34:52.147Z,12.20
2019-01-25T08:35:54.571Z,10.00
2019-01-25T08:36:57.472Z,10.60
2019-01-25T08:38:00.076Z,11.00
2019-01-25T08:39:05.358Z,10.40
2019-01-25T08:40:09.863Z,11.60
2019-01-25T08:41:12.521Z,11.40
2019-01-25T08:42:15.724Z,11.00
2019-01-25T08:43:19.969Z,11.40
2019-01-25T08:44:23.013Z,13.20
2019-01-25T08:45:26.217Z,13.00
2019-01-25T08:46:28.794Z,11.80
2019-01-25T08:47:31.632Z,12.40
2019-01-25T08:48:34.842Z,13.20
2019-01-25T08:49:37.465Z,11.20
2019-01-25T08:50:39.938Z,12.00
2019-01-25T08:51:44.809Z,11.00
2019-01-25T08:52:47.453Z,11.20
2019-01-25T08:53:50.065Z,11.60
2019-01-25T08:54:52.659Z,11.60
2019-01-25T08:55:55.378Z,12.80
2019-01-25T08:56:58.641Z,11.80
2019-01-25T08:58:01.183Z,11.60
2019-01-25T08:59:03.613Z,11.40
2019-01-25T09:00:11.454Z,12.60
2019-01-25T09:01:14.281Z,11.00
2019-01-25T09:02:18.535Z,12.60
2019-01-25T09:03:22.086Z,12.00
2019-01-25T09:04:24.917Z,12.60
2019-01-25T09:05:27.269Z,11.60
2019-01-25T09:06:30.094Z,11.20
2019-01-25T09:07:34.906Z,11.00
2019-01-25T09:08:38.594Z,12.80
2019-01-25T09:09:41.231Z,12.60
2019-01-25T09:10:43.764Z,12.00
2019-01-25T09:11:46.157Z,11.00
2019-01-25T09:12:49.044Z,11.80
2019-01-25T09:13:52.283Z,12.60
2019-01-25T09:14:54.873Z,12.00
2019-01-25T09:15:57.324Z,10.20
2019-01-25T09:16:59.763Z,12.40
2019-01-25T09:18:02.858Z,11.80
2019-01-25T09:19:05.914Z,11.00
2019-01-25T09:20:14.522Z,13.60
2019-01-25T09:21:15.683Z,13.00
2019-01-25T09:22:18.610Z,12.20
2019-01-25T09:23:21.159Z,12.40
2019-01-25T09:24:24.820Z,12.20
2019-01-25T09:25:27.345Z,12.40
2019-01-25T09:26:29.777Z,11.20
2019-01-25T09:27:32.376Z,12.80
2019-01-25T09:28:35.096Z,12.80
2019-01-25T09:29:38.790Z,13.00
2019-01-25T09:30:42.764Z,11.80
2019-01-25T09:31:45.185Z,12.80
2019-01-25T09:32:47.605Z,10.20
2019-01-25T09:33:50.196Z,13.00
2019-01-25T09:34:52.707Z,12.80
2019-01-25T09:35:55.625Z,12.00
2019-01-25T09:36:58.411Z,12.20
2019-01-25T09:38:00.823Z,12.60
2019-01-25T09:39:06.597Z,12.20
2019-01-25T09:40:13.175Z,11.40
2019-01-25T09:41:15.625Z,11.20
2019-01-25T09:42:18.053Z,10.20
2019-01-25T09:43:21.286Z,11.60
2019-01-25T09:44:24.143Z,12.00
2019-01-25T09:45:27.499Z,12.80
2019-01-25T09:46:30.258Z,12.20
2019-01-25T09:47:32.975Z,12.20
2019-01-25T09:48:35.606Z,12.80
2019-01-25T09:49:38.796Z,12.00
2019-01-25T09:50:41.482Z,14.00
2019-01-25T09:51:43.980Z,11.60
2019-01-25T09:52:46.804Z,10.20
2019-01-25T09:53:49.216Z,12.40
2019-01-25T09:54:51.752Z,11.40
2019-01-25T09:55:54.132Z,13.00
2019-01-25T09:56:56.736Z,11.80
2019-01-25T09:58:01.560Z,13.00
2019-01-25T09:59:04.754Z,12.40
2019-01-25T10:00:35.812Z,13.40
2019-01-25T10:01:38.242Z,11.20
2019-01-25T10:02:40.846Z,12.20
2019-01-25T10:03:43.714Z,13.40
2019-01-25T10:04:47.480Z,11.40
2019-01-25T10:05:49.917Z,11.80
2019-01-25T10:06:52.304Z,13.00
2019-01-25T10:07:54.711Z,14.00
2019-01-25T10:08:57.189Z,11.60
2019-01-25T10:09:59.774Z,12.20
2019-01-25T10:11:02.508Z,11.00
2019-01-25T10:12:05.058Z,11.40
2019-01-25T10:13:07.565Z,11.80
2019-01-25T10:14:10.139Z,12.20
2019-01-25T10:15:15.127Z,13.40
2019-01-25T10:16:17.759Z,12.80
2019-01-25T10:17:21.091Z,11.00
2019-01-25T10:18:25.118Z,12.00
2019-01-25T10:19:27.796Z,11.80
2019-01-25T10:20:33.082Z,13.00
2019-01-25T10:21:36.931Z,12.60
2019-01-25T10:22:39.811Z,12.40
2019-01-25T10:23:42.358Z,13.00
2019-01-25T10:24:44.726Z,12.40
2019-01-25T10:25:47.157Z,13.20
2019-01-25T10:26:49.655Z,10.60
2019-01-25T10:27:52.042Z,10.80
2019-01-25T10:28:54.394Z,13.40
2019-01-25T10:29:57.024Z,14.40
2019-01-25T10:30:59.527Z,11.60
2019-01-25T10:32:02.031Z,11.60
2019-01-25T10:33:04.461Z,12.40
2019-01-25T10:34:07.493Z,11.00
2019-01-25T10:35:10.317Z,13.00
2019-01-25T10:36:12.983Z,12.00
2019-01-25T10:37:15.630Z,12.20
2019-01-25T10:38:18.258Z,13.60
2019-01-25T10:39:20.713Z,14.00
2019-01-25T10:40:23.259Z,15.00
2019-01-25T10:41:25.851Z,12.60
2019-01-25T10:42:28.369Z,13.40
2019-01-25T10:43:30.817Z,13.40
2019-01-25T10:44:33.218Z,14.00
2019-01-25T10:45:37.219Z,12.00
2019-01-25T10:46:40.106Z,12.00
2019-01-25T10:47:42.980Z,12.80
2019-01-25T10:48:45.675Z,12.00
2019-01-25T10:49:48.547Z,13.60
2019-01-25T10:50:51.064Z,12.00
2019-01-25T10:51:54.998Z,12.80
2019-01-25T10:52:57.667Z,13.40
2019-01-25T10:54:00.262Z,12.80
2019-01-25T10:55:02.863Z,12.20
2019-01-25T10:56:06.094Z,12.00
2019-01-25T10:57:08.658Z,12.80
2019-01-25T10:58:11.292Z,14.40
2019-01-25T10:59:14.026Z,13.20
2019-01-25T11:00:17.165Z,13.20
2019-01-25T11:01:19.744Z,12.80
2019-01-25T11:02:23.114Z,14.00
2019-01-25T11:03:26.934Z,12.00
2019-01-25T11:04:31.694Z,13.20
2019-01-25T11:05:34.638Z,13.00
2019-01-25T11:06:37.489Z,13.20
2019-01-25T11:07:41.603Z,13.80
2019-01-25T11:08:44.257Z,12.00
2019-01-25T11:09:46.799Z,13.60
2019-01-25T11:10:49.310Z,14.80
2019-01-25T11:11:51.677Z,13.20
2019-01-25T11:13:00.807Z,14.00
2019-01-25T11:13:59.818Z,13.20
2019-01-25T11:15:02.347Z,13.60
2019-01-25T11:16:05.978Z,13.00
2019-01-25T11:17:08.579Z,14.20
2019-01-25T11:18:11.005Z,16.40
2019-01-25T11:19:14.145Z,13.00
2019-01-25T11:20:20.615Z,16.40
2019-01-25T11:21:23.275Z,14.60
2019-01-25T11:22:25.595Z,14.80
2019-01-25T11:23:28.473Z,15.20
2019-01-25T11:24:31.394Z,14.60
2019-01-25T11:25:36.356Z,13.40
2019-01-25T11:26:38.738Z,13.80
2019-01-25T11:27:41.310Z,14.00
2019-01-25T11:28:43.699Z,14.20
2019-01-25T11:29:46.142Z,15.80
2019-01-25T11:30:48.795Z,15.60
2019-01-25T11:31:51.335Z,13.00
2019-01-25T11:32:55.070Z,15.00
2019-01-25T11:33:57.535Z,13.80
2019-01-25T11:35:00.015Z,15.20
2019-01-25T11:36:02.404Z,16.20
2019-01-25T11:37:04.830Z,14.20
2019-01-25T11:38:07.315Z,13.60
2019-01-25T11:39:11.107Z,15.80
2019-01-25T11:40:19.422Z,15.20
2019-01-25T11:41:23.196Z,16.00
2019-01-25T11:42:25.688Z,15.20
2019-01-25T11:43:28.143Z,14.40
2019-01-25T11:44:30.625Z,13.60
2019-01-25T11:45:34.641Z,16.00
2019-01-25T11:46:37.073Z,15.20
2019-01-25T11:47:39.697Z,14.00
2019-01-25T11:48:42.354Z,13.60
2019-01-25T11:49:44.838Z,15.80
2019-01-25T11:50:47.591Z,15.40
2019-01-25T11:51:50.523Z,15.20
2019-01-25T11:52:55.447Z,13.80
2019-01-25T11:53:58.130Z,15.60
2019-01-25T11:55:01.706Z,14.40
2019-01-25T11:56:04.324Z,15.40
2019-01-25T11:57:06.976Z,15.80
2019-01-25T11:58:09.455Z,15.40
2019-01-25T11:59:12.452Z,15.00
2019-01-25T12:00:20.733Z,15.80
2019-01-25T12:01:23.820Z,14.80
2019-01-25T12:02:26.322Z,15.20
2019-01-25T12:03:28.862Z,14.60
2019-01-25T12:04:31.366Z,16.00
2019-01-25T12:05:34.016Z,14.60
2019-01-25T12:06:36.572Z,16.20
2019-01-25T12:07:39.976Z,15.20
2019-01-25T12:08:42.352Z,17.20
2019-01-25T12:09:44.715Z,14.20
2019-01-25T12:10:47.398Z,17.00
2019-01-25T12:11:50.007Z,14.80
2019-01-25T12:12:53.755Z,15.00
2019-01-25T12:13:57.264Z,17.40
2019-01-25T12:14:59.725Z,14.20
2019-01-25T12:16:02.440Z,16.80
2019-01-25T12:17:05.078Z,15.20
2019-01-25T12:18:07.383Z,14.20
2019-01-25T12:19:09.909Z,16.80
2019-01-25T12:20:15.244Z,14.60
2019-01-25T12:21:17.786Z,15.80
2019-01-25T12:22:20.399Z,16.00
2019-01-25T12:23:22.923Z,15.00
2019-01-25T12:24:26.447Z,15.20
2019-01-25T12:25:31.395Z,15.60
2019-01-25T12:26:34.103Z,16.80
2019-01-25T12:27:37.730Z,14.60
2019-01-25T12:28:40.484Z,15.00
2019-01-25T12:29:42.959Z,15.20
2019-01-25T12:30:46.003Z,16.20
2019-01-25T12:31:49.817Z,15.20
2019-01-25T12:32:52.193Z,14.40
2019-01-25T12:33:55.298Z,16.00
2019-01-25T12:34:57.924Z,15.40
2019-01-25T12:36:00.519Z,16.00
2019-01-25T12:37:04.753Z,15.40
2019-01-25T12:38:07.625Z,16.40
2019-01-25T12:39:10.047Z,13.80
2019-01-25T12:40:13.157Z,15.00
2019-01-25T12:41:15.622Z,15.60
2019-01-25T12:42:18.306Z,15.20
2019-01-25T12:43:24.150Z,14.60
2019-01-25T12:44:24.984Z,18.00
2019-01-25T12:45:27.826Z,14.40
2019-01-25T12:46:32.090Z,16.00
2019-01-25T12:47:34.844Z,14.60
2019-01-25T12:48:37.450Z,15.20
2019-01-25T12:49:40.022Z,16.00
2019-01-25T12:50:49.340Z,15.80
2019-01-25T12:52:08.361Z,14.80
2019-01-25T12:53:09.125Z,16.20
2019-01-25T12:54:12.889Z,13.00
2019-01-25T12:55:15.470Z,15.00
2019-01-25T12:56:19.854Z,15.20
2019-01-25T12:57:22.390Z,16.20
2019-01-25T12:58:24.891Z,14.80
2019-01-25T12:59:29.009Z,15.00
2019-01-25T13:00:31.664Z,15.00
2019-01-25T13:01:35.070Z,14.40
2019-01-25T13:02:37.749Z,15.00
2019-01-25T13:03:40.088Z,13.40
2019-01-25T13:04:42.583Z,15.00
2019-01-25T13:05:45.088Z,16.80
2019-01-25T13:06:47.605Z,14.00
2019-01-25T13:07:50.097Z,14.40
2019-01-25T13:08:53.913Z,14.60
2019-01-25T13:09:56.438Z,14.20
2019-01-25T13:11:00.300Z,15.80
2019-01-25T13:12:04.104Z,16.60
2019-01-25T13:13:08.063Z,14.40
2019-01-25T13:14:10.535Z,16.40
2019-01-25T13:15:12.894Z,14.00
2019-01-25T13:16:16.600Z,14.40
2019-01-25T13:17:18.983Z,15.20
2019-01-25T13:18:21.645Z,15.00
2019-01-25T13:19:25.189Z,15.00
2019-01-25T13:20:28.618Z,15.80
2019-01-25T13:21:31.190Z,13.20
2019-01-25T13:22:33.601Z,16.40
2019-01-25T13:23:36.047Z,16.20
2019-01-25T13:24:38.445Z,14.00
2019-01-25T13:25:40.902Z,15.80
2019-01-25T13:26:43.946Z,14.00
2019-01-25T13:27:46.361Z,17.00
2019-01-25T13:28:49.230Z,14.20
2019-01-25T13:29:52.001Z,13.80
2019-01-25T13:30:55.691Z,13.40
2019-01-25T13:31:58.181Z,15.80
2019-01-25T13:33:00.987Z,12.80
2019-01-25T13:34:04.085Z,19.00
2019-01-25T13:35:06.795Z,13.40
2019-01-25T13:36:11.130Z,15.40
2019-01-25T13:37:13.771Z,14.60
2019-01-25T13:38:16.502Z,15.00
2019-01-25T13:39:19.054Z,16.60
2019-01-25T13:40:23.293Z,14.60
2019-01-25T13:41:27.484Z,14.80